sensor_id;sensor_type;location;lat;lon;timestamp;P1;durP1;ratioP1;P2;durP2;ratioP2
37529;SDS011;23374;52.758;6.872;2023-01-10T00:00:49;5.43;;;1.30;;
37529;SDS011;23374;52.758;6.872;2023-01-10T00:03:09;13.07;;;1.73;;
37529;SDS011;23374;52.758;6.872;2023-01-10T00:05:32;9.03;;;1.20;;
37529;SDS011;23374;52.758;6.872;2023-01-10T00:07:53;8.63;;;1.60;;
37529;SDS011;23374;52.758;6.872;2023-01-10T00:10:14;4.57;;;1.30;;
37529;SDS011;23374;52.758;6.872;2023-01-10T00:12:34;4.63;;;1.83;;
37529;SDS011;23374;52.758;6.872;2023-01-10T00:15:14;9.17;;;2.00;;
37529;SDS011;23374;52.758;6.872;2023-01-10T00:17:35;6.87;;;1.87;;
37529;SDS011;23374;52.758;6.872;2023-01-10T00:19:55;7.00;;;2.07;;
37529;SDS011;23374;52.758;6.872;2023-01-10T00:22:15;11.53;;;1.77;;
37529;SDS011;23374;52.758;6.872;2023-01-10T00:24:38;8.60;;;1.67;;
37529;SDS011;23374;52.758;6.872;2023-01-10T00:26:58;7.90;;;1.77;;
37529;SDS011;23374;52.758;6.872;2023-01-10T00:29:26;6.30;;;1.70;;
37529;SDS011;23374;52.758;6.872;2023-01-10T00:31:47;9.00;;;1.83;;
37529;SDS011;23374;52.758;6.872;2023-01-10T00:34:07;4.20;;;1.57;;
37529;SDS011;23374;52.758;6.872;2023-01-10T00:36:28;7.03;;;1.93;;
37529;SDS011;23374;52.758;6.872;2023-01-10T00:38:48;9.43;;;2.30;;
37529;SDS011;23374;52.758;6.872;2023-01-10T00:41:08;12.47;;;2.50;;
37529;SDS011;23374;52.758;6.872;2023-01-10T00:46:15;8.50;;;1.70;;
37529;SDS011;23374;52.758;6.872;2023-01-10T00:48:35;6.83;;;1.83;;
37529;SDS011;23374;52.758;6.872;2023-01-10T00:50:56;7.90;;;1.83;;
37529;SDS011;23374;52.758;6.872;2023-01-10T00:53:16;13.20;;;2.73;;
37529;SDS011;23374;52.758;6.872;2023-01-10T00:55:37;8.07;;;2.00;;
37529;SDS011;23374;52.758;6.872;2023-01-10T00:57:59;6.63;;;2.53;;
37529;SDS011;23374;52.758;6.872;2023-01-10T01:00:19;11.73;;;1.90;;
37529;SDS011;23374;52.758;6.872;2023-01-10T01:02:40;7.87;;;1.83;;
37529;SDS011;23374;52.758;6.872;2023-01-10T01:05:00;8.80;;;2.50;;
37529;SDS011;23374;52.758;6.872;2023-01-10T01:07:20;10.33;;;2.03;;
37529;SDS011;23374;52.758;6.872;2023-01-10T01:09:40;11.93;;;2.93;;
37529;SDS011;23374;52.758;6.872;2023-01-10T01:12:20;8.70;;;2.03;;
37529;SDS011;23374;52.758;6.872;2023-01-10T01:14:40;4.53;;;1.57;;
37529;SDS011;23374;52.758;6.872;2023-01-10T01:17:55;8.90;;;2.03;;
37529;SDS011;23374;52.758;6.872;2023-01-10T01:20:16;19.10;;;3.03;;
37529;SDS011;23374;52.758;6.872;2023-01-10T01:22:37;10.27;;;2.13;;
37529;SDS011;23374;52.758;6.872;2023-01-10T01:24:57;5.73;;;2.13;;
37529;SDS011;23374;52.758;6.872;2023-01-10T01:27:18;11.50;;;2.10;;
37529;SDS011;23374;52.758;6.872;2023-01-10T01:29:39;10.63;;;2.53;;
37529;SDS011;23374;52.758;6.872;2023-01-10T01:32:00;12.03;;;2.40;;
37529;SDS011;23374;52.758;6.872;2023-01-10T01:34:20;10.57;;;2.07;;
37529;SDS011;23374;52.758;6.872;2023-01-10T01:36:40;13.17;;;2.33;;
37529;SDS011;23374;52.758;6.872;2023-01-10T01:39:01;7.80;;;2.43;;
37529;SDS011;23374;52.758;6.872;2023-01-10T01:41:22;9.40;;;2.80;;
37529;SDS011;23374;52.758;6.872;2023-01-10T01:44:08;13.73;;;2.80;;
37529;SDS011;23374;52.758;6.872;2023-01-10T01:46:35;11.40;;;2.90;;
37529;SDS011;23374;52.758;6.872;2023-01-10T01:48:57;8.07;;;2.20;;
37529;SDS011;23374;52.758;6.872;2023-01-10T01:51:22;10.60;;;1.97;;
37529;SDS011;23374;52.758;6.872;2023-01-10T01:54:06;11.20;;;2.63;;
37529;SDS011;23374;52.758;6.872;2023-01-10T01:56:53;11.43;;;2.53;;
37529;SDS011;23374;52.758;6.872;2023-01-10T01:59:35;8.47;;;1.87;;
37529;SDS011;23374;52.758;6.872;2023-01-10T02:02:03;9.47;;;2.00;;
37529;SDS011;23374;52.758;6.872;2023-01-10T02:04:33;7.37;;;2.27;;
37529;SDS011;23374;52.758;6.872;2023-01-10T02:07:09;8.50;;;2.00;;
37529;SDS011;23374;52.758;6.872;2023-01-10T02:09:36;9.60;;;2.23;;
37529;SDS011;23374;52.758;6.872;2023-01-10T02:13:32;14.90;;;2.63;;
37529;SDS011;23374;52.758;6.872;2023-01-10T02:15:54;15.03;;;1.73;;
37529;SDS011;23374;52.758;6.872;2023-01-10T02:18:14;8.13;;;2.17;;
37529;SDS011;23374;52.758;6.872;2023-01-10T02:37:11;6.73;;;2.27;;
37529;SDS011;23374;52.758;6.872;2023-01-10T02:40:38;4.97;;;1.33;;
37529;SDS011;23374;52.758;6.872;2023-01-10T02:43:15;7.60;;;2.07;;
37529;SDS011;23374;52.758;6.872;2023-01-10T02:45:41;6.37;;;1.70;;
37529;SDS011;23374;52.758;6.872;2023-01-10T02:48:09;5.97;;;1.90;;
37529;SDS011;23374;52.758;6.872;2023-01-10T02:51:26;13.53;;;2.30;;
37529;SDS011;23374;52.758;6.872;2023-01-10T02:54:06;6.40;;;1.60;;
37529;SDS011;23374;52.758;6.872;2023-01-10T03:09:02;11.50;;;2.23;;
37529;SDS011;23374;52.758;6.872;2023-01-10T03:11:29;12.27;;;2.20;;
37529;SDS011;23374;52.758;6.872;2023-01-10T03:14:01;4.67;;;2.23;;
37529;SDS011;23374;52.758;6.872;2023-01-10T03:16:28;5.20;;;1.90;;
37529;SDS011;23374;52.758;6.872;2023-01-10T03:19:02;7.03;;;2.00;;
37529;SDS011;23374;52.758;6.872;2023-01-10T03:21:27;7.50;;;1.67;;
37529;SDS011;23374;52.758;6.872;2023-01-10T03:23:52;8.50;;;1.97;;
37529;SDS011;23374;52.758;6.872;2023-01-10T03:26:17;14.33;;;2.20;;
37529;SDS011;23374;52.758;6.872;2023-01-10T03:28:50;9.13;;;2.03;;
37529;SDS011;23374;52.758;6.872;2023-01-10T03:31:25;11.97;;;2.33;;
37529;SDS011;23374;52.758;6.872;2023-01-10T03:33:51;6.37;;;1.60;;
37529;SDS011;23374;52.758;6.872;2023-01-10T03:36:58;7.60;;;1.90;;
37529;SDS011;23374;52.758;6.872;2023-01-10T03:39:52;7.30;;;2.07;;
37529;SDS011;23374;52.758;6.872;2023-01-10T03:42:35;5.67;;;1.73;;
37529;SDS011;23374;52.758;6.872;2023-01-10T03:47:56;5.17;;;1.57;;
37529;SDS011;23374;52.758;6.872;2023-01-10T03:50:22;6.60;;;1.43;;
37529;SDS011;23374;52.758;6.872;2023-01-10T03:52:44;7.20;;;1.60;;
37529;SDS011;23374;52.758;6.872;2023-01-10T03:55:06;12.93;;;1.77;;
37529;SDS011;23374;52.758;6.872;2023-01-10T03:57:29;11.63;;;2.27;;
37529;SDS011;23374;52.758;6.872;2023-01-10T03:59:54;5.03;;;1.60;;
37529;SDS011;23374;52.758;6.872;2023-01-10T04:02:16;8.57;;;1.70;;
37529;SDS011;23374;52.758;6.872;2023-01-10T04:04:37;8.53;;;2.63;;
37529;SDS011;23374;52.758;6.872;2023-01-10T04:06:57;6.27;;;1.30;;
37529;SDS011;23374;52.758;6.872;2023-01-10T04:09:17;8.40;;;1.67;;
37529;SDS011;23374;52.758;6.872;2023-01-10T04:11:38;5.00;;;1.57;;
37529;SDS011;23374;52.758;6.872;2023-01-10T04:13:58;6.93;;;1.70;;
37529;SDS011;23374;52.758;6.872;2023-01-10T04:16:19;4.00;;;1.20;;
37529;SDS011;23374;52.758;6.872;2023-01-10T04:18:39;11.50;;;1.77;;
37529;SDS011;23374;52.758;6.872;2023-01-10T04:20:59;7.37;;;1.67;;
37529;SDS011;23374;52.758;6.872;2023-01-10T04:23:20;5.37;;;1.13;;
37529;SDS011;23374;52.758;6.872;2023-01-10T04:25:40;8.57;;;1.50;;
37529;SDS011;23374;52.758;6.872;2023-01-10T04:28:00;6.60;;;1.93;;
37529;SDS011;23374;52.758;6.872;2023-01-10T04:30:21;7.03;;;1.37;;
37529;SDS011;23374;52.758;6.872;2023-01-10T04:32:41;11.07;;;2.07;;
37529;SDS011;23374;52.758;6.872;2023-01-10T04:35:01;6.17;;;1.30;;
37529;SDS011;23374;52.758;6.872;2023-01-10T04:37:22;5.93;;;1.60;;
37529;SDS011;23374;52.758;6.872;2023-01-10T04:39:42;15.37;;;2.23;;
37529;SDS011;23374;52.758;6.872;2023-01-10T04:42:02;7.47;;;2.00;;
37529;SDS011;23374;52.758;6.872;2023-01-10T04:44:22;9.73;;;2.03;;
37529;SDS011;23374;52.758;6.872;2023-01-10T04:46:42;9.67;;;2.37;;
37529;SDS011;23374;52.758;6.872;2023-01-10T04:49:03;6.83;;;1.47;;
37529;SDS011;23374;52.758;6.872;2023-01-10T04:51:24;8.63;;;1.70;;
37529;SDS011;23374;52.758;6.872;2023-01-10T04:53:45;5.80;;;1.70;;
37529;SDS011;23374;52.758;6.872;2023-01-10T04:56:07;9.60;;;2.30;;
37529;SDS011;23374;52.758;6.872;2023-01-10T04:58:34;6.60;;;1.53;;
37529;SDS011;23374;52.758;6.872;2023-01-10T05:00:56;7.63;;;2.20;;
37529;SDS011;23374;52.758;6.872;2023-01-10T05:03:16;9.23;;;1.50;;
37529;SDS011;23374;52.758;6.872;2023-01-10T05:05:38;9.80;;;2.03;;
37529;SDS011;23374;52.758;6.872;2023-01-10T05:07:59;9.97;;;1.77;;
37529;SDS011;23374;52.758;6.872;2023-01-10T05:10:19;8.93;;;2.03;;
37529;SDS011;23374;52.758;6.872;2023-01-10T05:12:40;5.40;;;1.90;;
37529;SDS011;23374;52.758;6.872;2023-01-10T05:15:00;11.40;;;1.87;;
37529;SDS011;23374;52.758;6.872;2023-01-10T05:17:21;6.30;;;1.70;;
37529;SDS011;23374;52.758;6.872;2023-01-10T05:19:41;5.07;;;1.93;;
37529;SDS011;23374;52.758;6.872;2023-01-10T05:22:02;19.77;;;2.93;;
37529;SDS011;23374;52.758;6.872;2023-01-10T05:24:23;11.00;;;2.03;;
37529;SDS011;23374;52.758;6.872;2023-01-10T05:26:43;12.97;;;2.37;;
37529;SDS011;23374;52.758;6.872;2023-01-10T05:29:04;9.27;;;2.10;;
37529;SDS011;23374;52.758;6.872;2023-01-10T05:31:24;16.00;;;2.63;;
37529;SDS011;23374;52.758;6.872;2023-01-10T05:33:46;9.07;;;2.40;;
37529;SDS011;23374;52.758;6.872;2023-01-10T05:36:08;9.47;;;2.37;;
37529;SDS011;23374;52.758;6.872;2023-01-10T05:38:29;8.97;;;1.80;;
37529;SDS011;23374;52.758;6.872;2023-01-10T05:40:54;14.00;;;2.33;;
37529;SDS011;23374;52.758;6.872;2023-01-10T05:43:15;13.90;;;2.37;;
37529;SDS011;23374;52.758;6.872;2023-01-10T05:45:35;8.13;;;1.97;;
37529;SDS011;23374;52.758;6.872;2023-01-10T05:47:56;15.57;;;2.20;;
37529;SDS011;23374;52.758;6.872;2023-01-10T05:50:17;13.07;;;2.13;;
37529;SDS011;23374;52.758;6.872;2023-01-10T05:52:37;9.33;;;1.73;;
37529;SDS011;23374;52.758;6.872;2023-01-10T05:54:58;11.90;;;2.03;;
37529;SDS011;23374;52.758;6.872;2023-01-10T05:57:18;8.10;;;1.93;;
37529;SDS011;23374;52.758;6.872;2023-01-10T05:59:40;12.13;;;2.30;;
37529;SDS011;23374;52.758;6.872;2023-01-10T06:02:00;8.80;;;2.33;;
37529;SDS011;23374;52.758;6.872;2023-01-10T06:04:21;13.67;;;2.57;;
37529;SDS011;23374;52.758;6.872;2023-01-10T06:06:41;9.77;;;2.27;;
37529;SDS011;23374;52.758;6.872;2023-01-10T06:09:02;15.87;;;2.40;;
37529;SDS011;23374;52.758;6.872;2023-01-10T06:11:30;9.83;;;2.13;;
37529;SDS011;23374;52.758;6.872;2023-01-10T06:13:55;13.57;;;2.57;;
37529;SDS011;23374;52.758;6.872;2023-01-10T06:16:16;6.60;;;1.77;;
37529;SDS011;23374;52.758;6.872;2023-01-10T06:18:36;12.60;;;2.90;;
37529;SDS011;23374;52.758;6.872;2023-01-10T06:20:57;9.57;;;2.20;;
37529;SDS011;23374;52.758;6.872;2023-01-10T06:23:17;7.27;;;2.60;;
37529;SDS011;23374;52.758;6.872;2023-01-10T06:25:37;8.90;;;2.17;;
37529;SDS011;23374;52.758;6.872;2023-01-10T06:27:59;7.73;;;1.70;;
37529;SDS011;23374;52.758;6.872;2023-01-10T06:30:20;11.27;;;2.07;;
37529;SDS011;23374;52.758;6.872;2023-01-10T06:32:40;9.03;;;1.97;;
37529;SDS011;23374;52.758;6.872;2023-01-10T06:35:01;11.93;;;1.97;;
37529;SDS011;23374;52.758;6.872;2023-01-10T06:37:22;13.07;;;2.50;;
37529;SDS011;23374;52.758;6.872;2023-01-10T06:39:42;9.13;;;1.50;;
37529;SDS011;23374;52.758;6.872;2023-01-10T06:42:05;4.53;;;2.00;;
37529;SDS011;23374;52.758;6.872;2023-01-10T06:44:25;9.00;;;2.27;;
37529;SDS011;23374;52.758;6.872;2023-01-10T06:46:45;12.83;;;1.97;;
37529;SDS011;23374;52.758;6.872;2023-01-10T06:49:06;11.50;;;2.30;;
37529;SDS011;23374;52.758;6.872;2023-01-10T06:51:27;9.90;;;2.00;;
37529;SDS011;23374;52.758;6.872;2023-01-10T06:53:47;12.23;;;2.00;;
37529;SDS011;23374;52.758;6.872;2023-01-10T06:56:07;10.67;;;2.33;;
37529;SDS011;23374;52.758;6.872;2023-01-10T06:58:28;9.07;;;2.10;;
37529;SDS011;23374;52.758;6.872;2023-01-10T07:00:50;9.97;;;2.07;;
37529;SDS011;23374;52.758;6.872;2023-01-10T07:03:11;12.00;;;2.30;;
37529;SDS011;23374;52.758;6.872;2023-01-10T07:05:32;11.60;;;2.13;;
37529;SDS011;23374;52.758;6.872;2023-01-10T07:07:52;8.13;;;1.73;;
37529;SDS011;23374;52.758;6.872;2023-01-10T07:10:13;9.50;;;2.60;;
37529;SDS011;23374;52.758;6.872;2023-01-10T07:12:33;5.70;;;1.87;;
37529;SDS011;23374;52.758;6.872;2023-01-10T07:14:53;9.17;;;2.53;;
37529;SDS011;23374;52.758;6.872;2023-01-10T07:17:13;12.47;;;2.20;;
37529;SDS011;23374;52.758;6.872;2023-01-10T07:19:34;6.50;;;2.00;;
37529;SDS011;23374;52.758;6.872;2023-01-10T07:21:54;9.40;;;2.50;;
37529;SDS011;23374;52.758;6.872;2023-01-10T07:24:15;11.30;;;2.50;;
37529;SDS011;23374;52.758;6.872;2023-01-10T07:26:35;12.97;;;2.30;;
37529;SDS011;23374;52.758;6.872;2023-01-10T07:28:56;10.50;;;2.37;;
37529;SDS011;23374;52.758;6.872;2023-01-10T07:31:18;7.53;;;1.93;;
37529;SDS011;23374;52.758;6.872;2023-01-10T07:33:39;15.60;;;2.67;;
37529;SDS011;23374;52.758;6.872;2023-01-10T07:36:00;8.70;;;2.33;;
37529;SDS011;23374;52.758;6.872;2023-01-10T07:38:20;12.47;;;2.43;;
37529;SDS011;23374;52.758;6.872;2023-01-10T07:40:40;11.57;;;2.53;;
37529;SDS011;23374;52.758;6.872;2023-01-10T07:43:01;13.07;;;2.67;;
37529;SDS011;23374;52.758;6.872;2023-01-10T07:45:22;6.93;;;2.50;;
37529;SDS011;23374;52.758;6.872;2023-01-10T07:47:42;17.33;;;2.33;;
37529;SDS011;23374;52.758;6.872;2023-01-10T07:50:03;9.03;;;2.97;;
37529;SDS011;23374;52.758;6.872;2023-01-10T07:52:24;9.83;;;2.60;;
37529;SDS011;23374;52.758;6.872;2023-01-10T07:54:44;10.87;;;2.90;;
37529;SDS011;23374;52.758;6.872;2023-01-10T07:57:04;10.00;;;2.77;;
37529;SDS011;23374;52.758;6.872;2023-01-10T07:59:25;9.90;;;2.30;;
37529;SDS011;23374;52.758;6.872;2023-01-10T08:01:46;18.40;;;3.03;;
37529;SDS011;23374;52.758;6.872;2023-01-10T08:04:08;8.87;;;2.37;;
37529;SDS011;23374;52.758;6.872;2023-01-10T08:06:28;12.47;;;2.80;;
37529;SDS011;23374;52.758;6.872;2023-01-10T08:08:48;14.60;;;2.77;;
37529;SDS011;23374;52.758;6.872;2023-01-10T08:11:08;14.53;;;3.23;;
37529;SDS011;23374;52.758;6.872;2023-01-10T08:13:29;10.33;;;2.67;;
37529;SDS011;23374;52.758;6.872;2023-01-10T08:15:50;8.40;;;2.20;;
37529;SDS011;23374;52.758;6.872;2023-01-10T08:18:11;12.33;;;2.60;;
37529;SDS011;23374;52.758;6.872;2023-01-10T08:20:31;15.70;;;2.50;;
37529;SDS011;23374;52.758;6.872;2023-01-10T08:22:51;15.10;;;2.70;;
37529;SDS011;23374;52.758;6.872;2023-01-10T08:25:11;18.70;;;3.13;;
37529;SDS011;23374;52.758;6.872;2023-01-10T08:27:32;16.43;;;3.23;;
37529;SDS011;23374;52.758;6.872;2023-01-10T08:29:53;8.70;;;2.83;;
37529;SDS011;23374;52.758;6.872;2023-01-10T08:32:13;10.00;;;2.20;;
37529;SDS011;23374;52.758;6.872;2023-01-10T08:34:33;8.47;;;2.90;;
37529;SDS011;23374;52.758;6.872;2023-01-10T08:36:54;30.00;;;3.17;;
37529;SDS011;23374;52.758;6.872;2023-01-10T08:39:14;16.97;;;3.07;;
37529;SDS011;23374;52.758;6.872;2023-01-10T08:41:34;8.87;;;2.90;;
37529;SDS011;23374;52.758;6.872;2023-01-10T08:43:54;6.67;;;2.30;;
37529;SDS011;23374;52.758;6.872;2023-01-10T08:46:15;9.50;;;2.70;;
37529;SDS011;23374;52.758;6.872;2023-01-10T08:48:36;16.33;;;2.87;;
37529;SDS011;23374;52.758;6.872;2023-01-10T08:50:56;15.13;;;2.57;;
37529;SDS011;23374;52.758;6.872;2023-01-10T08:53:17;6.50;;;1.93;;
37529;SDS011;23374;52.758;6.872;2023-01-10T08:55:37;17.37;;;2.63;;
37529;SDS011;23374;52.758;6.872;2023-01-10T08:57:58;14.53;;;2.70;;
37529;SDS011;23374;52.758;6.872;2023-01-10T09:00:20;11.20;;;2.10;;
37529;SDS011;23374;52.758;6.872;2023-01-10T09:02:41;12.27;;;2.83;;
37529;SDS011;23374;52.758;6.872;2023-01-10T09:05:01;11.17;;;3.10;;
37529;SDS011;23374;52.758;6.872;2023-01-10T09:07:21;12.00;;;2.73;;
37529;SDS011;23374;52.758;6.872;2023-01-10T09:09:42;14.47;;;2.73;;
37529;SDS011;23374;52.758;6.872;2023-01-10T09:12:03;16.73;;;2.87;;
37529;SDS011;23374;52.758;6.872;2023-01-10T09:15:13;16.63;;;2.23;;
37529;SDS011;23374;52.758;6.872;2023-01-10T09:17:34;12.63;;;2.93;;
37529;SDS011;23374;52.758;6.872;2023-01-10T09:19:54;14.00;;;3.73;;
37529;SDS011;23374;52.758;6.872;2023-01-10T09:22:15;10.90;;;2.43;;
37529;SDS011;23374;52.758;6.872;2023-01-10T09:24:35;10.97;;;2.70;;
37529;SDS011;23374;52.758;6.872;2023-01-10T09:26:58;12.77;;;2.73;;
37529;SDS011;23374;52.758;6.872;2023-01-10T09:29:19;10.60;;;2.93;;
37529;SDS011;23374;52.758;6.872;2023-01-10T09:31:39;13.63;;;3.40;;
37529;SDS011;23374;52.758;6.872;2023-01-10T09:34:00;8.93;;;3.07;;
37529;SDS011;23374;52.758;6.872;2023-01-10T09:36:20;10.03;;;2.97;;
37529;SDS011;23374;52.758;6.872;2023-01-10T09:38:40;11.40;;;3.03;;
37529;SDS011;23374;52.758;6.872;2023-01-10T09:41:20;18.40;;;4.00;;
37529;SDS011;23374;52.758;6.872;2023-01-10T09:46:56;19.83;;;4.10;;
37529;SDS011;23374;52.758;6.872;2023-01-10T09:49:57;10.47;;;3.40;;
37529;SDS011;23374;52.758;6.872;2023-01-10T09:55:54;16.73;;;4.17;;
37529;SDS011;23374;52.758;6.872;2023-01-10T09:58:16;15.03;;;3.40;;
37529;SDS011;23374;52.758;6.872;2023-01-10T10:00:48;11.23;;;3.63;;
37529;SDS011;23374;52.758;6.872;2023-01-10T10:08:00;16.50;;;4.30;;
37529;SDS011;23374;52.758;6.872;2023-01-10T10:10:26;16.00;;;4.57;;
37529;SDS011;23374;52.758;6.872;2023-01-10T10:13:09;11.50;;;3.60;;
37529;SDS011;23374;52.758;6.872;2023-01-10T10:16:00;17.23;;;3.93;;
37529;SDS011;23374;52.758;6.872;2023-01-10T10:19:04;12.63;;;4.10;;
37529;SDS011;23374;52.758;6.872;2023-01-10T10:23:36;16.53;;;3.90;;
37529;SDS011;23374;52.758;6.872;2023-01-10T10:31:59;16.07;;;4.00;;
37529;SDS011;23374;52.758;6.872;2023-01-10T10:34:37;15.00;;;4.00;;
37529;SDS011;23374;52.758;6.872;2023-01-10T10:37:24;22.00;;;4.70;;
37529;SDS011;23374;52.758;6.872;2023-01-10T10:40:05;6.67;;;2.73;;
37529;SDS011;23374;52.758;6.872;2023-01-10T10:42:49;13.37;;;3.93;;
37529;SDS011;23374;52.758;6.872;2023-01-10T10:45:36;16.07;;;4.17;;
37529;SDS011;23374;52.758;6.872;2023-01-10T10:51:24;13.13;;;4.10;;
37529;SDS011;23374;52.758;6.872;2023-01-10T10:53:48;11.00;;;3.90;;
37529;SDS011;23374;52.758;6.872;2023-01-10T10:56:12;16.43;;;4.20;;
37529;SDS011;23374;52.758;6.872;2023-01-10T10:58:37;15.23;;;3.70;;
37529;SDS011;23374;52.758;6.872;2023-01-10T11:01:00;11.70;;;3.40;;
37529;SDS011;23374;52.758;6.872;2023-01-10T11:03:49;9.63;;;3.67;;
37529;SDS011;23374;52.758;6.872;2023-01-10T11:06:16;16.50;;;4.23;;
37529;SDS011;23374;52.758;6.872;2023-01-10T11:08:39;15.00;;;3.50;;
37529;SDS011;23374;52.758;6.872;2023-01-10T11:11:03;14.33;;;3.60;;
37529;SDS011;23374;52.758;6.872;2023-01-10T11:13:42;12.87;;;3.30;;
37529;SDS011;23374;52.758;6.872;2023-01-10T11:16:24;10.37;;;2.70;;
37529;SDS011;23374;52.758;6.872;2023-01-10T11:18:47;11.33;;;2.90;;
37529;SDS011;23374;52.758;6.872;2023-01-10T11:21:38;13.83;;;3.10;;
37529;SDS011;23374;52.758;6.872;2023-01-10T11:23:59;13.33;;;2.53;;
37529;SDS011;23374;52.758;6.872;2023-01-10T11:26:34;14.20;;;3.00;;
37529;SDS011;23374;52.758;6.872;2023-01-10T11:29:18;18.67;;;3.00;;
37529;SDS011;23374;52.758;6.872;2023-01-10T11:32:07;18.80;;;2.80;;
37529;SDS011;23374;52.758;6.872;2023-01-10T11:34:34;10.10;;;2.50;;
37529;SDS011;23374;52.758;6.872;2023-01-10T11:37:01;7.50;;;2.60;;
37529;SDS011;23374;52.758;6.872;2023-01-10T11:40:21;15.10;;;2.60;;
37529;SDS011;23374;52.758;6.872;2023-01-10T11:42:46;17.47;;;3.90;;
37529;SDS011;23374;52.758;6.872;2023-01-10T11:45:40;9.57;;;2.80;;
37529;SDS011;23374;52.758;6.872;2023-01-10T11:48:16;7.87;;;2.47;;
37529;SDS011;23374;52.758;6.872;2023-01-10T11:50:41;21.97;;;3.30;;
37529;SDS011;23374;52.758;6.872;2023-01-10T11:53:28;14.87;;;3.53;;
37529;SDS011;23374;52.758;6.872;2023-01-10T11:55:54;18.43;;;3.13;;
37529;SDS011;23374;52.758;6.872;2023-01-10T11:58:14;19.63;;;2.70;;
37529;SDS011;23374;52.758;6.872;2023-01-10T12:00:39;11.77;;;2.60;;
37529;SDS011;23374;52.758;6.872;2023-01-10T12:03:20;16.93;;;3.67;;
37529;SDS011;23374;52.758;6.872;2023-01-10T12:05:56;12.60;;;3.43;;
37529;SDS011;23374;52.758;6.872;2023-01-10T12:08:40;10.83;;;3.17;;
37529;SDS011;23374;52.758;6.872;2023-01-10T12:14:32;19.77;;;3.67;;
37529;SDS011;23374;52.758;6.872;2023-01-10T12:16:59;13.40;;;2.47;;
37529;SDS011;23374;52.758;6.872;2023-01-10T12:19:21;5.57;;;2.20;;
37529;SDS011;23374;52.758;6.872;2023-01-10T12:21:43;17.43;;;3.27;;
37529;SDS011;23374;52.758;6.872;2023-01-10T12:24:16;12.83;;;2.90;;
37529;SDS011;23374;52.758;6.872;2023-01-10T12:26:42;11.30;;;2.77;;
37529;SDS011;23374;52.758;6.872;2023-01-10T12:29:07;10.70;;;2.23;;
37529;SDS011;23374;52.758;6.872;2023-01-10T12:31:36;11.77;;;2.07;;
37529;SDS011;23374;52.758;6.872;2023-01-10T12:34:03;13.93;;;2.63;;
37529;SDS011;23374;52.758;6.872;2023-01-10T12:36:47;10.33;;;2.57;;
37529;SDS011;23374;52.758;6.872;2023-01-10T12:39:22;10.80;;;3.10;;
37529;SDS011;23374;52.758;6.872;2023-01-10T12:43:41;11.13;;;2.70;;
37529;SDS011;23374;52.758;6.872;2023-01-10T12:46:45;12.93;;;2.90;;
37529;SDS011;23374;52.758;6.872;2023-01-10T12:49:28;7.77;;;2.23;;
37529;SDS011;23374;52.758;6.872;2023-01-10T12:52:03;12.73;;;2.97;;
37529;SDS011;23374;52.758;6.872;2023-01-10T12:54:29;12.97;;;2.90;;
37529;SDS011;23374;52.758;6.872;2023-01-10T12:56:50;7.40;;;2.30;;
37529;SDS011;23374;52.758;6.872;2023-01-10T12:59:18;12.83;;;2.87;;
37529;SDS011;23374;52.758;6.872;2023-01-10T13:01:56;8.80;;;3.17;;
37529;SDS011;23374;52.758;6.872;2023-01-10T13:04:21;16.17;;;3.27;;
37529;SDS011;23374;52.758;6.872;2023-01-10T13:06:43;13.93;;;3.13;;
37529;SDS011;23374;52.758;6.872;2023-01-10T13:09:11;16.37;;;3.50;;
37529;SDS011;23374;52.758;6.872;2023-01-10T13:11:49;14.27;;;3.17;;
37529;SDS011;23374;52.758;6.872;2023-01-10T13:14:19;16.13;;;3.27;;
37529;SDS011;23374;52.758;6.872;2023-01-10T13:16:54;11.70;;;2.67;;
37529;SDS011;23374;52.758;6.872;2023-01-10T13:19:24;12.40;;;2.70;;
37529;SDS011;23374;52.758;6.872;2023-01-10T13:21:46;16.77;;;2.93;;
37529;SDS011;23374;52.758;6.872;2023-01-10T13:24:25;11.27;;;2.93;;
37529;SDS011;23374;52.758;6.872;2023-01-10T13:26:57;10.27;;;2.10;;
37529;SDS011;23374;52.758;6.872;2023-01-10T13:29:36;13.73;;;3.03;;
37529;SDS011;23374;52.758;6.872;2023-01-10T13:32:00;13.53;;;2.73;;
37529;SDS011;23374;52.758;6.872;2023-01-10T13:34:22;10.43;;;2.43;;
37529;SDS011;23374;52.758;6.872;2023-01-10T13:39:34;17.37;;;2.80;;
37529;SDS011;23374;52.758;6.872;2023-01-10T13:46:31;4.70;;;1.67;;
37529;SDS011;23374;52.758;6.872;2023-01-10T13:49:42;8.07;;;1.97;;
37529;SDS011;23374;52.758;6.872;2023-01-10T13:52:31;10.73;;;2.03;;
37529;SDS011;23374;52.758;6.872;2023-01-10T13:54:59;14.13;;;2.70;;
37529;SDS011;23374;52.758;6.872;2023-01-10T13:57:47;13.40;;;2.07;;
37529;SDS011;23374;52.758;6.872;2023-01-10T14:02:51;11.67;;;3.10;;
37529;SDS011;23374;52.758;6.872;2023-01-10T14:05:16;7.63;;;2.20;;
37529;SDS011;23374;52.758;6.872;2023-01-10T14:07:47;9.50;;;2.53;;
37529;SDS011;23374;52.758;6.872;2023-01-10T14:10:20;14.50;;;2.33;;
37529;SDS011;23374;52.758;6.872;2023-01-10T14:13:03;11.43;;;2.20;;
37529;SDS011;23374;52.758;6.872;2023-01-10T14:15:39;14.73;;;2.13;;
37529;SDS011;23374;52.758;6.872;2023-01-10T14:18:26;10.10;;;1.90;;
37529;SDS011;23374;52.758;6.872;2023-01-10T14:20:59;9.63;;;2.13;;
37529;SDS011;23374;52.758;6.872;2023-01-10T14:23:22;10.70;;;2.10;;
37529;SDS011;23374;52.758;6.872;2023-01-10T14:25:53;14.50;;;2.10;;
37529;SDS011;23374;52.758;6.872;2023-01-10T14:28:33;16.87;;;2.47;;
37529;SDS011;23374;52.758;6.872;2023-01-10T14:31:20;10.53;;;1.67;;
37529;SDS011;23374;52.758;6.872;2023-01-10T14:33:44;11.50;;;1.93;;
37529;SDS011;23374;52.758;6.872;2023-01-10T14:36:16;9.43;;;2.00;;
37529;SDS011;23374;52.758;6.872;2023-01-10T14:38:47;16.63;;;2.47;;
37529;SDS011;23374;52.758;6.872;2023-01-10T14:41:15;11.77;;;1.97;;
37529;SDS011;23374;52.758;6.872;2023-01-10T14:43:48;6.23;;;2.00;;
37529;SDS011;23374;52.758;6.872;2023-01-10T14:46:50;9.20;;;2.00;;
37529;SDS011;23374;52.758;6.872;2023-01-10T14:49:35;11.90;;;2.47;;
37529;SDS011;23374;52.758;6.872;2023-01-10T14:52:15;10.70;;;2.17;;
37529;SDS011;23374;52.758;6.872;2023-01-10T14:54:40;11.10;;;1.80;;
37529;SDS011;23374;52.758;6.872;2023-01-10T14:57:01;14.43;;;2.23;;
37529;SDS011;23374;52.758;6.872;2023-01-10T14:59:32;15.80;;;2.10;;
37529;SDS011;23374;52.758;6.872;2023-01-10T15:01:56;12.73;;;2.57;;
37529;SDS011;23374;52.758;6.872;2023-01-10T15:04:21;10.23;;;2.33;;
37529;SDS011;23374;52.758;6.872;2023-01-10T15:11:04;14.10;;;2.00;;
37529;SDS011;23374;52.758;6.872;2023-01-10T15:13:28;14.43;;;2.20;;
37529;SDS011;23374;52.758;6.872;2023-01-10T15:15:50;10.03;;;2.20;;
37529;SDS011;23374;52.758;6.872;2023-01-10T15:18:37;11.80;;;2.33;;
37529;SDS011;23374;52.758;6.872;2023-01-10T15:21:02;8.70;;;2.00;;
37529;SDS011;23374;52.758;6.872;2023-01-10T15:23:23;18.83;;;2.13;;
37529;SDS011;23374;52.758;6.872;2023-01-10T15:25:56;10.87;;;2.00;;
37529;SDS011;23374;52.758;6.872;2023-01-10T15:28:20;18.10;;;3.00;;
37529;SDS011;23374;52.758;6.872;2023-01-10T15:30:40;11.03;;;2.03;;
37529;SDS011;23374;52.758;6.872;2023-01-10T15:33:05;5.77;;;1.50;;
37529;SDS011;23374;52.758;6.872;2023-01-10T15:35:40;7.67;;;1.87;;
37529;SDS011;23374;52.758;6.872;2023-01-10T15:38:07;9.73;;;2.10;;
37529;SDS011;23374;52.758;6.872;2023-01-10T15:40:36;12.13;;;2.03;;
37529;SDS011;23374;52.758;6.872;2023-01-10T15:43:33;10.33;;;1.70;;
37529;SDS011;23374;52.758;6.872;2023-01-10T15:45:55;13.40;;;1.80;;
37529;SDS011;23374;52.758;6.872;2023-01-10T15:48:40;13.57;;;1.93;;
37529;SDS011;23374;52.758;6.872;2023-01-10T15:51:47;10.17;;;2.00;;
37529;SDS011;23374;52.758;6.872;2023-01-10T15:54:27;7.00;;;1.43;;
37529;SDS011;23374;52.758;6.872;2023-01-10T15:56:51;6.67;;;1.20;;
37529;SDS011;23374;52.758;6.872;2023-01-10T15:59:31;14.97;;;2.43;;